Terminal Aerodrome Forecast
Issued by NWS Louisville, KY

Home | Current Version | Previous Version | Text Only | Print | Product List | Glossary On
Versions: 1 2 3 4 5 6 7 8 9 10 11 12 13 14 15 16
189
FTUS43 KLMK 232323
TAFBWG
TAF
KBWG 232323Z 2400/2424 29006KT P6SM OVC011
     FM241500 27004KT P6SM BKN025
     FM241800 20005KT P6SM SCT030=

USA.gov is the U.S. government's official web portal to all federal, state and local government web resources and services.